sensor_id;sensor_type;location;lat;lon;timestamp;temperature;humidity
57108;DHT22;42987;52.916;6.542;2023-12-20T00:01:49;5.90;99.90
57108;DHT22;42987;52.916;6.542;2023-12-20T00:04:15;5.90;99.90
57108;DHT22;42987;52.916;6.542;2023-12-20T00:06:41;5.90;99.90
57108;DHT22;42987;52.916;6.542;2023-12-20T00:09:07;5.90;99.90
57108;DHT22;42987;52.916;6.542;2023-12-20T00:11:32;5.90;99.90
57108;DHT22;42987;52.916;6.542;2023-12-20T00:13:58;5.90;99.90
57108;DHT22;42987;52.916;6.542;2023-12-20T00:16:24;5.90;99.90
57108;DHT22;42987;52.916;6.542;2023-12-20T00:18:49;5.90;99.90
57108;DHT22;42987;52.916;6.542;2023-12-20T00:21:15;5.90;99.90
57108;DHT22;42987;52.916;6.542;2023-12-20T00:23:41;5.80;99.90
57108;DHT22;42987;52.916;6.542;2023-12-20T00:26:07;5.80;99.90
57108;DHT22;42987;52.916;6.542;2023-12-20T00:28:33;5.80;99.90
57108;DHT22;42987;52.916;6.542;2023-12-20T00:30:59;5.80;99.90
57108;DHT22;42987;52.916;6.542;2023-12-20T00:33:25;5.70;99.90
57108;DHT22;42987;52.916;6.542;2023-12-20T00:35:53;5.70;99.90
57108;DHT22;42987;52.916;6.542;2023-12-20T00:38:19;5.70;99.90
57108;DHT22;42987;52.916;6.542;2023-12-20T00:40:44;5.70;99.90
57108;DHT22;42987;52.916;6.542;2023-12-20T00:43:10;5.60;99.90
57108;DHT22;42987;52.916;6.542;2023-12-20T00:45:37;5.60;99.90
57108;DHT22;42987;52.916;6.542;2023-12-20T00:48:02;5.60;99.90
57108;DHT22;42987;52.916;6.542;2023-12-20T00:50:28;5.60;99.90
57108;DHT22;42987;52.916;6.542;2023-12-20T00:52:54;5.60;99.90
57108;DHT22;42987;52.916;6.542;2023-12-20T00:55:20;5.60;99.90
57108;DHT22;42987;52.916;6.542;2023-12-20T00:57:46;5.60;99.90
57108;DHT22;42987;52.916;6.542;2023-12-20T01:00:12;5.60;99.90
57108;DHT22;42987;52.916;6.542;2023-12-20T01:02:39;5.60;99.90
57108;DHT22;42987;52.916;6.542;2023-12-20T01:05:05;5.60;99.90
57108;DHT22;42987;52.916;6.542;2023-12-20T01:07:31;5.60;99.90
57108;DHT22;42987;52.916;6.542;2023-12-20T01:09:56;5.60;99.90
57108;DHT22;42987;52.916;6.542;2023-12-20T01:12:22;5.70;99.90
57108;DHT22;42987;52.916;6.542;2023-12-20T01:14:48;5.70;99.90
57108;DHT22;42987;52.916;6.542;2023-12-20T01:17:14;5.70;99.90
57108;DHT22;42987;52.916;6.542;2023-12-20T01:19:40;5.80;99.90
57108;DHT22;42987;52.916;6.542;2023-12-20T01:22:06;5.70;99.90
57108;DHT22;42987;52.916;6.542;2023-12-20T01:24:32;5.70;99.90
57108;DHT22;42987;52.916;6.542;2023-12-20T01:26:58;5.60;99.90
57108;DHT22;42987;52.916;6.542;2023-12-20T01:29:23;5.70;99.90
57108;DHT22;42987;52.916;6.542;2023-12-20T01:31:49;5.60;99.90
57108;DHT22;42987;52.916;6.542;2023-12-20T01:34:15;5.60;99.90
57108;DHT22;42987;52.916;6.542;2023-12-20T01:36:41;5.60;99.90
57108;DHT22;42987;52.916;6.542;2023-12-20T01:39:07;5.60;99.90
57108;DHT22;42987;52.916;6.542;2023-12-20T01:41:33;5.60;99.90
57108;DHT22;42987;52.916;6.542;2023-12-20T01:43:59;5.70;99.90
57108;DHT22;42987;52.916;6.542;2023-12-20T01:46:25;5.70;99.90
57108;DHT22;42987;52.916;6.542;2023-12-20T01:48:51;5.70;99.90
57108;DHT22;42987;52.916;6.542;2023-12-20T01:51:18;5.70;99.90
57108;DHT22;42987;52.916;6.542;2023-12-20T01:53:44;5.60;99.90
57108;DHT22;42987;52.916;6.542;2023-12-20T01:56:11;5.60;99.90
57108;DHT22;42987;52.916;6.542;2023-12-20T01:58:45;5.60;99.90
57108;DHT22;42987;52.916;6.542;2023-12-20T02:01:12;5.60;99.90
57108;DHT22;42987;52.916;6.542;2023-12-20T02:03:42;5.60;99.90
57108;DHT22;42987;52.916;6.542;2023-12-20T02:06:09;5.70;99.90
57108;DHT22;42987;52.916;6.542;2023-12-20T02:08:35;5.70;99.90
57108;DHT22;42987;52.916;6.542;2023-12-20T02:11:01;5.80;99.90
57108;DHT22;42987;52.916;6.542;2023-12-20T02:13:27;5.70;99.90
57108;DHT22;42987;52.916;6.542;2023-12-20T02:15:54;5.70;99.90
57108;DHT22;42987;52.916;6.542;2023-12-20T02:18:20;5.80;99.90
57108;DHT22;42987;52.916;6.542;2023-12-20T02:20:45;5.80;99.90
57108;DHT22;42987;52.916;6.542;2023-12-20T02:23:11;5.90;99.90
57108;DHT22;42987;52.916;6.542;2023-12-20T02:25:37;5.90;99.90
57108;DHT22;42987;52.916;6.542;2023-12-20T02:28:04;5.90;99.90
57108;DHT22;42987;52.916;6.542;2023-12-20T02:30:30;5.90;99.90
57108;DHT22;42987;52.916;6.542;2023-12-20T02:32:56;6.00;99.90
57108;DHT22;42987;52.916;6.542;2023-12-20T02:35:22;5.90;99.90
57108;DHT22;42987;52.916;6.542;2023-12-20T02:37:47;6.10;99.90
57108;DHT22;42987;52.916;6.542;2023-12-20T02:40:13;6.00;99.90
57108;DHT22;42987;52.916;6.542;2023-12-20T02:42:39;6.00;99.90
57108;DHT22;42987;52.916;6.542;2023-12-20T02:45:05;6.00;99.90
57108;DHT22;42987;52.916;6.542;2023-12-20T02:47:34;6.00;99.90
57108;DHT22;42987;52.916;6.542;2023-12-20T02:50:00;6.00;99.90
57108;DHT22;42987;52.916;6.542;2023-12-20T02:52:27;6.10;99.90
57108;DHT22;42987;52.916;6.542;2023-12-20T02:54:53;6.00;99.90
57108;DHT22;42987;52.916;6.542;2023-12-20T02:57:18;6.00;99.90
57108;DHT22;42987;52.916;6.542;2023-12-20T02:59:47;6.00;99.90
57108;DHT22;42987;52.916;6.542;2023-12-20T03:02:13;6.00;99.90
57108;DHT22;42987;52.916;6.542;2023-12-20T03:04:39;6.00;99.90
57108;DHT22;42987;52.916;6.542;2023-12-20T03:07:04;6.00;99.90
57108;DHT22;42987;52.916;6.542;2023-12-20T03:09:30;6.00;99.90
57108;DHT22;42987;52.916;6.542;2023-12-20T03:11:56;6.00;99.90
57108;DHT22;42987;52.916;6.542;2023-12-20T03:14:22;6.00;99.90
57108;DHT22;42987;52.916;6.542;2023-12-20T03:16:50;6.00;99.90
57108;DHT22;42987;52.916;6.542;2023-12-20T03:19:17;5.90;99.90
57108;DHT22;42987;52.916;6.542;2023-12-20T03:21:43;5.90;99.90
57108;DHT22;42987;52.916;6.542;2023-12-20T03:24:08;5.90;99.90
57108;DHT22;42987;52.916;6.542;2023-12-20T03:26:34;5.90;99.90
57108;DHT22;42987;52.916;6.542;2023-12-20T03:29:00;5.90;99.90
57108;DHT22;42987;52.916;6.542;2023-12-20T03:31:25;5.80;99.90
57108;DHT22;42987;52.916;6.542;2023-12-20T03:33:51;5.80;99.90
57108;DHT22;42987;52.916;6.542;2023-12-20T03:36:19;5.90;99.90
57108;DHT22;42987;52.916;6.542;2023-12-20T03:38:45;5.90;99.90
57108;DHT22;42987;52.916;6.542;2023-12-20T03:41:11;5.90;99.90
57108;DHT22;42987;52.916;6.542;2023-12-20T03:43:37;5.90;99.90
57108;DHT22;42987;52.916;6.542;2023-12-20T03:46:03;6.00;99.90
57108;DHT22;42987;52.916;6.542;2023-12-20T03:48:32;6.00;99.90
57108;DHT22;42987;52.916;6.542;2023-12-20T03:50:58;6.00;99.90
57108;DHT22;42987;52.916;6.542;2023-12-20T03:53:24;6.10;99.90
57108;DHT22;42987;52.916;6.542;2023-12-20T03:55:50;6.10;99.90
57108;DHT22;42987;52.916;6.542;2023-12-20T03:58:16;6.10;99.90
57108;DHT22;42987;52.916;6.542;2023-12-20T04:00:41;6.20;99.90
57108;DHT22;42987;52.916;6.542;2023-12-20T04:03:07;6.20;99.90
57108;DHT22;42987;52.916;6.542;2023-12-20T04:05:33;6.20;99.90
57108;DHT22;42987;52.916;6.542;2023-12-20T04:08:01;6.20;99.90
57108;DHT22;42987;52.916;6.542;2023-12-20T04:10:27;6.20;99.90
57108;DHT22;42987;52.916;6.542;2023-12-20T04:12:53;6.20;99.90
57108;DHT22;42987;52.916;6.542;2023-12-20T04:15:20;6.20;99.90
57108;DHT22;42987;52.916;6.542;2023-12-20T04:17:46;6.20;99.90
57108;DHT22;42987;52.916;6.542;2023-12-20T04:20:11;6.20;99.90
57108;DHT22;42987;52.916;6.542;2023-12-20T04:22:37;6.20;99.90
57108;DHT22;42987;52.916;6.542;2023-12-20T04:25:03;6.20;99.90
57108;DHT22;42987;52.916;6.542;2023-12-20T04:27:29;6.30;99.90
57108;DHT22;42987;52.916;6.542;2023-12-20T04:29:54;6.30;99.90
57108;DHT22;42987;52.916;6.542;2023-12-20T04:32:20;6.30;99.90
57108;DHT22;42987;52.916;6.542;2023-12-20T04:34:46;6.30;99.90
57108;DHT22;42987;52.916;6.542;2023-12-20T04:37:12;6.30;99.90
57108;DHT22;42987;52.916;6.542;2023-12-20T04:39:38;6.30;99.90
57108;DHT22;42987;52.916;6.542;2023-12-20T04:42:04;6.40;99.90
57108;DHT22;42987;52.916;6.542;2023-12-20T04:44:30;6.40;99.90
57108;DHT22;42987;52.916;6.542;2023-12-20T04:46:56;6.40;99.90
57108;DHT22;42987;52.916;6.542;2023-12-20T04:49:22;6.40;99.90
57108;DHT22;42987;52.916;6.542;2023-12-20T04:51:48;6.30;99.90
57108;DHT22;42987;52.916;6.542;2023-12-20T04:54:13;6.30;99.90
57108;DHT22;42987;52.916;6.542;2023-12-20T04:56:39;6.40;99.90
57108;DHT22;42987;52.916;6.542;2023-12-20T04:59:05;6.40;99.90
57108;DHT22;42987;52.916;6.542;2023-12-20T05:01:31;6.30;99.90
57108;DHT22;42987;52.916;6.542;2023-12-20T05:03:56;6.40;99.90
57108;DHT22;42987;52.916;6.542;2023-12-20T05:06:22;6.40;99.90
57108;DHT22;42987;52.916;6.542;2023-12-20T05:08:48;6.50;99.90
57108;DHT22;42987;52.916;6.542;2023-12-20T05:11:14;6.50;99.90
57108;DHT22;42987;52.916;6.542;2023-12-20T05:13:40;6.50;99.90
57108;DHT22;42987;52.916;6.542;2023-12-20T05:16:09;6.50;99.90
57108;DHT22;42987;52.916;6.542;2023-12-20T05:18:35;6.50;99.90
57108;DHT22;42987;52.916;6.542;2023-12-20T05:21:00;6.60;99.90
57108;DHT22;42987;52.916;6.542;2023-12-20T05:23:26;6.50;99.90
57108;DHT22;42987;52.916;6.542;2023-12-20T05:25:52;6.60;99.90
57108;DHT22;42987;52.916;6.542;2023-12-20T05:28:18;6.60;99.90
57108;DHT22;42987;52.916;6.542;2023-12-20T05:30:43;6.70;99.90
57108;DHT22;42987;52.916;6.542;2023-12-20T05:33:09;6.70;99.90
57108;DHT22;42987;52.916;6.542;2023-12-20T05:35:35;6.70;99.90
57108;DHT22;42987;52.916;6.542;2023-12-20T05:38:01;6.70;99.90
57108;DHT22;42987;52.916;6.542;2023-12-20T05:40:27;6.80;99.90
57108;DHT22;42987;52.916;6.542;2023-12-20T05:42:52;6.80;99.90
57108;DHT22;42987;52.916;6.542;2023-12-20T05:45:18;6.80;99.90
57108;DHT22;42987;52.916;6.542;2023-12-20T05:47:44;7.00;99.90
57108;DHT22;42987;52.916;6.542;2023-12-20T05:50:09;6.90;99.90
57108;DHT22;42987;52.916;6.542;2023-12-20T05:52:35;6.90;99.90
57108;DHT22;42987;52.916;6.542;2023-12-20T05:55:01;6.90;99.90
57108;DHT22;42987;52.916;6.542;2023-12-20T05:57:27;6.90;99.90
57108;DHT22;42987;52.916;6.542;2023-12-20T05:59:53;7.00;99.90
57108;DHT22;42987;52.916;6.542;2023-12-20T06:02:19;7.00;99.90
57108;DHT22;42987;52.916;6.542;2023-12-20T06:04:45;7.00;99.90
57108;DHT22;42987;52.916;6.542;2023-12-20T06:07:14;7.00;99.90
57108;DHT22;42987;52.916;6.542;2023-12-20T06:09:40;7.00;99.90
57108;DHT22;42987;52.916;6.542;2023-12-20T06:12:07;7.00;99.90
57108;DHT22;42987;52.916;6.542;2023-12-20T06:14:34;7.00;99.90
57108;DHT22;42987;52.916;6.542;2023-12-20T06:17:00;7.10;99.90
57108;DHT22;42987;52.916;6.542;2023-12-20T06:19:27;7.10;99.90
57108;DHT22;42987;52.916;6.542;2023-12-20T06:21:52;7.10;99.90
57108;DHT22;42987;52.916;6.542;2023-12-20T06:24:18;7.10;99.90
57108;DHT22;42987;52.916;6.542;2023-12-20T06:26:44;7.10;99.90
57108;DHT22;42987;52.916;6.542;2023-12-20T06:29:10;7.10;99.90
57108;DHT22;42987;52.916;6.542;2023-12-20T06:31:35;7.10;99.90
57108;DHT22;42987;52.916;6.542;2023-12-20T06:34:01;7.10;99.90
57108;DHT22;42987;52.916;6.542;2023-12-20T06:36:27;7.10;99.90
57108;DHT22;42987;52.916;6.542;2023-12-20T06:38:53;7.10;99.90
57108;DHT22;42987;52.916;6.542;2023-12-20T06:41:19;7.20;99.90
57108;DHT22;42987;52.916;6.542;2023-12-20T06:43:45;7.20;99.90
57108;DHT22;42987;52.916;6.542;2023-12-20T06:46:11;7.20;99.90
57108;DHT22;42987;52.916;6.542;2023-12-20T06:48:39;7.20;99.90
57108;DHT22;42987;52.916;6.542;2023-12-20T06:51:05;7.20;99.90
57108;DHT22;42987;52.916;6.542;2023-12-20T06:53:31;7.30;99.90
57108;DHT22;42987;52.916;6.542;2023-12-20T06:55:57;7.30;99.90
57108;DHT22;42987;52.916;6.542;2023-12-20T06:58:23;7.30;99.90
57108;DHT22;42987;52.916;6.542;2023-12-20T07:00:49;7.30;99.90
57108;DHT22;42987;52.916;6.542;2023-12-20T07:03:14;7.40;99.90
57108;DHT22;42987;52.916;6.542;2023-12-20T07:05:40;7.40;99.90
57108;DHT22;42987;52.916;6.542;2023-12-20T07:08:06;7.40;99.90
57108;DHT22;42987;52.916;6.542;2023-12-20T07:10:32;7.40;99.90
57108;DHT22;42987;52.916;6.542;2023-12-20T07:12:58;7.40;99.90
57108;DHT22;42987;52.916;6.542;2023-12-20T07:15:24;7.40;99.90
57108;DHT22;42987;52.916;6.542;2023-12-20T07:17:50;7.40;99.90
57108;DHT22;42987;52.916;6.542;2023-12-20T07:20:15;7.40;99.90
57108;DHT22;42987;52.916;6.542;2023-12-20T07:22:41;7.40;99.90
57108;DHT22;42987;52.916;6.542;2023-12-20T07:25:07;7.40;99.90
57108;DHT22;42987;52.916;6.542;2023-12-20T07:27:33;7.50;99.90
57108;DHT22;42987;52.916;6.542;2023-12-20T07:29:59;7.50;99.90
57108;DHT22;42987;52.916;6.542;2023-12-20T07:32:25;7.50;99.90
57108;DHT22;42987;52.916;6.542;2023-12-20T07:34:51;7.50;99.90
57108;DHT22;42987;52.916;6.542;2023-12-20T07:37:17;7.50;99.90
57108;DHT22;42987;52.916;6.542;2023-12-20T07:39:43;7.50;99.90
57108;DHT22;42987;52.916;6.542;2023-12-20T07:42:09;7.50;99.90
57108;DHT22;42987;52.916;6.542;2023-12-20T07:44:35;7.50;99.90
57108;DHT22;42987;52.916;6.542;2023-12-20T07:47:03;7.50;99.90
57108;DHT22;42987;52.916;6.542;2023-12-20T07:49:32;7.50;99.90
57108;DHT22;42987;52.916;6.542;2023-12-20T07:51:58;7.50;99.90
57108;DHT22;42987;52.916;6.542;2023-12-20T07:54:24;7.50;99.90
57108;DHT22;42987;52.916;6.542;2023-12-20T07:56:50;7.60;99.90
57108;DHT22;42987;52.916;6.542;2023-12-20T07:59:15;7.50;99.90
57108;DHT22;42987;52.916;6.542;2023-12-20T08:01:41;7.60;99.90
57108;DHT22;42987;52.916;6.542;2023-12-20T08:04:08;7.60;99.90
57108;DHT22;42987;52.916;6.542;2023-12-20T08:06:34;7.60;99.90
57108;DHT22;42987;52.916;6.542;2023-12-20T08:09:00;7.60;99.90
57108;DHT22;42987;52.916;6.542;2023-12-20T08:11:26;7.70;99.90
57108;DHT22;42987;52.916;6.542;2023-12-20T08:13:51;7.70;99.90
57108;DHT22;42987;52.916;6.542;2023-12-20T08:16:17;7.70;99.90
57108;DHT22;42987;52.916;6.542;2023-12-20T08:18:43;7.70;99.90
57108;DHT22;42987;52.916;6.542;2023-12-20T08:21:09;7.80;99.90
57108;DHT22;42987;52.916;6.542;2023-12-20T08:23:35;7.80;99.90
57108;DHT22;42987;52.916;6.542;2023-12-20T08:26:06;7.80;99.90
57108;DHT22;42987;52.916;6.542;2023-12-20T08:28:31;7.80;99.90
57108;DHT22;42987;52.916;6.542;2023-12-20T08:30:57;7.80;99.90
57108;DHT22;42987;52.916;6.542;2023-12-20T08:33:23;7.90;99.90
57108;DHT22;42987;52.916;6.542;2023-12-20T08:35:49;7.80;99.90
57108;DHT22;42987;52.916;6.542;2023-12-20T08:38:15;7.90;99.90
57108;DHT22;42987;52.916;6.542;2023-12-20T08:40:42;7.90;99.90
57108;DHT22;42987;52.916;6.542;2023-12-20T08:43:07;7.90;99.90
57108;DHT22;42987;52.916;6.542;2023-12-20T08:45:33;7.90;99.90
57108;DHT22;42987;52.916;6.542;2023-12-20T08:47:59;7.80;99.90
57108;DHT22;42987;52.916;6.542;2023-12-20T08:50:28;7.90;99.90
57108;DHT22;42987;52.916;6.542;2023-12-20T08:52:54;8.00;99.90
57108;DHT22;42987;52.916;6.542;2023-12-20T08:55:20;8.00;99.90
57108;DHT22;42987;52.916;6.542;2023-12-20T08:57:46;8.00;99.90
57108;DHT22;42987;52.916;6.542;2023-12-20T09:00:12;8.00;99.90
57108;DHT22;42987;52.916;6.542;2023-12-20T09:02:38;8.10;99.90
57108;DHT22;42987;52.916;6.542;2023-12-20T09:05:04;8.10;99.90
57108;DHT22;42987;52.916;6.542;2023-12-20T09:07:30;8.10;99.90
57108;DHT22;42987;52.916;6.542;2023-12-20T09:09:57;8.20;99.90
57108;DHT22;42987;52.916;6.542;2023-12-20T09:12:23;8.20;99.90
57108;DHT22;42987;52.916;6.542;2023-12-20T09:14:50;8.20;99.90
57108;DHT22;42987;52.916;6.542;2023-12-20T09:17:17;8.30;99.90
57108;DHT22;42987;52.916;6.542;2023-12-20T09:19:44;8.30;99.90
57108;DHT22;42987;52.916;6.542;2023-12-20T09:22:10;8.20;99.90
57108;DHT22;42987;52.916;6.542;2023-12-20T09:24:36;8.20;99.90
57108;DHT22;42987;52.916;6.542;2023-12-20T09:27:01;8.20;99.90
57108;DHT22;42987;52.916;6.542;2023-12-20T09:29:28;8.20;99.90
57108;DHT22;42987;52.916;6.542;2023-12-20T09:31:54;8.20;99.90
57108;DHT22;42987;52.916;6.542;2023-12-20T09:34:20;8.20;99.90
57108;DHT22;42987;52.916;6.542;2023-12-20T09:36:46;8.30;99.90
57108;DHT22;42987;52.916;6.542;2023-12-20T09:39:18;8.30;99.90
57108;DHT22;42987;52.916;6.542;2023-12-20T09:42:04;8.40;99.90
57108;DHT22;42987;52.916;6.542;2023-12-20T09:44:31;8.50;99.90
57108;DHT22;42987;52.916;6.542;2023-12-20T09:46:57;8.50;99.90
57108;DHT22;42987;52.916;6.542;2023-12-20T09:49:23;8.50;99.90
57108;DHT22;42987;52.916;6.542;2023-12-20T09:51:51;8.20;99.90
57108;DHT22;42987;52.916;6.542;2023-12-20T09:54:18;7.80;99.90
57108;DHT22;42987;52.916;6.542;2023-12-20T09:56:47;7.40;99.90
57108;DHT22;42987;52.916;6.542;2023-12-20T09:59:14;7.10;99.90
57108;DHT22;42987;52.916;6.542;2023-12-20T10:01:40;6.90;99.90
57108;DHT22;42987;52.916;6.542;2023-12-20T10:04:07;6.80;99.90
57108;DHT22;42987;52.916;6.542;2023-12-20T10:06:43;6.70;99.90
57108;DHT22;42987;52.916;6.542;2023-12-20T10:09:10;6.60;99.90
57108;DHT22;42987;52.916;6.542;2023-12-20T10:11:37;6.50;99.90
57108;DHT22;42987;52.916;6.542;2023-12-20T10:14:06;6.50;99.90
57108;DHT22;42987;52.916;6.542;2023-12-20T10:16:33;6.50;99.90
57108;DHT22;42987;52.916;6.542;2023-12-20T10:19:00;6.50;99.90
57108;DHT22;42987;52.916;6.542;2023-12-20T10:21:26;6.50;99.90
57108;DHT22;42987;52.916;6.542;2023-12-20T10:23:56;6.50;99.90
57108;DHT22;42987;52.916;6.542;2023-12-20T10:26:23;6.50;99.90
57108;DHT22;42987;52.916;6.542;2023-12-20T10:28:51;6.40;99.90
57108;DHT22;42987;52.916;6.542;2023-12-20T10:31:31;6.40;99.90
57108;DHT22;42987;52.916;6.542;2023-12-20T10:33:58;6.50;99.90
57108;DHT22;42987;52.916;6.542;2023-12-20T10:36:26;6.50;99.90
57108;DHT22;42987;52.916;6.542;2023-12-20T10:38:55;6.50;99.90
57108;DHT22;42987;52.916;6.542;2023-12-20T10:41:30;6.40;99.90
57108;DHT22;42987;52.916;6.542;2023-12-20T10:44:01;6.40;99.90
57108;DHT22;42987;52.916;6.542;2023-12-20T10:46:28;6.50;99.90
57108;DHT22;42987;52.916;6.542;2023-12-20T10:48:56;6.50;99.90
57108;DHT22;42987;52.916;6.542;2023-12-20T10:51:23;6.50;99.90
57108;DHT22;42987;52.916;6.542;2023-12-20T10:53:50;6.40;99.90
57108;DHT22;42987;52.916;6.542;2023-12-20T10:56:19;6.50;99.90
57108;DHT22;42987;52.916;6.542;2023-12-20T10:58:47;6.50;99.90
57108;DHT22;42987;52.916;6.542;2023-12-20T11:01:14;6.50;99.90
57108;DHT22;42987;52.916;6.542;2023-12-20T11:03:51;6.50;99.90
57108;DHT22;42987;52.916;6.542;2023-12-20T11:06:51;6.60;99.90
57108;DHT22;42987;52.916;6.542;2023-12-20T11:09:24;6.60;99.90
57108;DHT22;42987;52.916;6.542;2023-12-20T11:12:10;6.60;99.90
57108;DHT22;42987;52.916;6.542;2023-12-20T11:14:52;6.60;99.90
57108;DHT22;42987;52.916;6.542;2023-12-20T11:17:18;6.70;99.90
57108;DHT22;42987;52.916;6.542;2023-12-20T11:22:28;6.70;99.90
57108;DHT22;42987;52.916;6.542;2023-12-20T11:25:08;6.70;99.90
57108;DHT22;42987;52.916;6.542;2023-12-20T11:27:34;6.80;99.90
57108;DHT22;42987;52.916;6.542;2023-12-20T11:30:03;6.80;99.90
57108;DHT22;42987;52.916;6.542;2023-12-20T11:32:36;6.80;99.90
57108;DHT22;42987;52.916;6.542;2023-12-20T11:37:38;6.90;99.90
57108;DHT22;42987;52.916;6.542;2023-12-20T11:40:11;6.90;99.90
57108;DHT22;42987;52.916;6.542;2023-12-20T11:42:50;6.90;99.90
57108;DHT22;42987;52.916;6.542;2023-12-20T11:45:18;6.90;99.90
57108;DHT22;42987;52.916;6.542;2023-12-20T11:47:48;7.00;99.90
57108;DHT22;42987;52.916;6.542;2023-12-20T11:50:19;7.00;99.90
57108;DHT22;42987;52.916;6.542;2023-12-20T11:52:45;7.00;99.90
57108;DHT22;42987;52.916;6.542;2023-12-20T11:55:11;7.00;99.90
57108;DHT22;42987;52.916;6.542;2023-12-20T11:57:37;7.10;99.90
57108;DHT22;42987;52.916;6.542;2023-12-20T12:00:03;7.10;99.90
57108;DHT22;42987;52.916;6.542;2023-12-20T12:02:30;7.10;99.90
57108;DHT22;42987;52.916;6.542;2023-12-20T12:04:56;7.10;99.90
57108;DHT22;42987;52.916;6.542;2023-12-20T12:07:24;7.10;99.90
57108;DHT22;42987;52.916;6.542;2023-12-20T12:09:50;7.10;99.90
57108;DHT22;42987;52.916;6.542;2023-12-20T12:12:19;7.10;99.90
57108;DHT22;42987;52.916;6.542;2023-12-20T12:14:45;7.10;99.90
57108;DHT22;42987;52.916;6.542;2023-12-20T12:17:12;7.20;99.90
57108;DHT22;42987;52.916;6.542;2023-12-20T12:19:39;7.20;99.90
57108;DHT22;42987;52.916;6.542;2023-12-20T12:22:06;7.20;99.90
57108;DHT22;42987;52.916;6.542;2023-12-20T12:24:46;7.30;99.90
57108;DHT22;42987;52.916;6.542;2023-12-20T12:27:16;7.30;99.90
57108;DHT22;42987;52.916;6.542;2023-12-20T12:30:03;7.20;99.90
57108;DHT22;42987;52.916;6.542;2023-12-20T12:32:29;7.30;99.90
57108;DHT22;42987;52.916;6.542;2023-12-20T12:34:55;7.20;99.90
57108;DHT22;42987;52.916;6.542;2023-12-20T12:37:22;7.20;99.90
57108;DHT22;42987;52.916;6.542;2023-12-20T12:39:49;7.20;99.90
57108;DHT22;42987;52.916;6.542;2023-12-20T12:42:15;7.30;99.90
57108;DHT22;42987;52.916;6.542;2023-12-20T12:44:41;7.20;99.90
57108;DHT22;42987;52.916;6.542;2023-12-20T12:47:06;7.30;99.90
57108;DHT22;42987;52.916;6.542;2023-12-20T12:49:33;7.20;99.90
57108;DHT22;42987;52.916;6.542;2023-12-20T12:51:59;7.20;99.90
57108;DHT22;42987;52.916;6.542;2023-12-20T12:54:28;7.20;99.90
57108;DHT22;42987;52.916;6.542;2023-12-20T12:56:54;7.20;99.90
57108;DHT22;42987;52.916;6.542;2023-12-20T12:59:20;7.20;99.90
57108;DHT22;42987;52.916;6.542;2023-12-20T13:01:46;7.20;99.90
57108;DHT22;42987;52.916;6.542;2023-12-20T13:04:11;7.30;99.90
57108;DHT22;42987;52.916;6.542;2023-12-20T13:06:38;7.20;99.90
57108;DHT22;42987;52.916;6.542;2023-12-20T13:09:04;7.20;99.90
57108;DHT22;42987;52.916;6.542;2023-12-20T13:11:30;7.10;99.90
57108;DHT22;42987;52.916;6.542;2023-12-20T13:13:57;7.10;99.90
57108;DHT22;42987;52.916;6.542;2023-12-20T13:16:29;7.00;99.90
57108;DHT22;42987;52.916;6.542;2023-12-20T13:18:54;6.90;99.90
57108;DHT22;42987;52.916;6.542;2023-12-20T13:21:21;6.90;99.90
57108;DHT22;42987;52.916;6.542;2023-12-20T13:23:47;6.80;99.90
57108;DHT22;42987;52.916;6.542;2023-12-20T13:26:13;6.70;99.90
57108;DHT22;42987;52.916;6.542;2023-12-20T13:28:40;6.70;99.90
57108;DHT22;42987;52.916;6.542;2023-12-20T13:31:05;6.70;99.90
57108;DHT22;42987;52.916;6.542;2023-12-20T13:33:31;6.60;99.90
57108;DHT22;42987;52.916;6.542;2023-12-20T13:35:57;6.60;99.90
57108;DHT22;42987;52.916;6.542;2023-12-20T13:38:23;6.60;99.90
57108;DHT22;42987;52.916;6.542;2023-12-20T13:40:49;6.60;99.90
57108;DHT22;42987;52.916;6.542;2023-12-20T13:43:15;6.50;99.90
57108;DHT22;42987;52.916;6.542;2023-12-20T13:45:46;6.50;99.90
57108;DHT22;42987;52.916;6.542;2023-12-20T13:48:12;6.50;99.90
57108;DHT22;42987;52.916;6.542;2023-12-20T13:50:38;6.40;99.90
57108;DHT22;42987;52.916;6.542;2023-12-20T13:53:03;6.50;99.90
57108;DHT22;42987;52.916;6.542;2023-12-20T13:55:33;6.50;99.90
57108;DHT22;42987;52.916;6.542;2023-12-20T13:57:58;6.40;99.90
57108;DHT22;42987;52.916;6.542;2023-12-20T14:00:24;6.40;99.90
57108;DHT22;42987;52.916;6.542;2023-12-20T14:02:51;6.40;99.90
57108;DHT22;42987;52.916;6.542;2023-12-20T14:05:17;6.40;99.90
57108;DHT22;42987;52.916;6.542;2023-12-20T14:07:44;6.40;99.90
57108;DHT22;42987;52.916;6.542;2023-12-20T14:10:13;6.40;99.90
57108;DHT22;42987;52.916;6.542;2023-12-20T14:12:39;6.40;99.90
57108;DHT22;42987;52.916;6.542;2023-12-20T14:15:06;6.40;99.90
57108;DHT22;42987;52.916;6.542;2023-12-20T14:17:40;6.40;99.90
57108;DHT22;42987;52.916;6.542;2023-12-20T14:20:06;6.40;99.90
57108;DHT22;42987;52.916;6.542;2023-12-20T14:22:33;6.40;99.90
57108;DHT22;42987;52.916;6.542;2023-12-20T14:24:58;6.40;99.90
57108;DHT22;42987;52.916;6.542;2023-12-20T14:27:24;6.40;99.90
57108;DHT22;42987;52.916;6.542;2023-12-20T14:29:53;6.40;99.90
57108;DHT22;42987;52.916;6.542;2023-12-20T14:32:19;6.40;99.90
57108;DHT22;42987;52.916;6.542;2023-12-20T14:34:45;6.40;99.90
57108;DHT22;42987;52.916;6.542;2023-12-20T14:37:12;6.40;99.90
57108;DHT22;42987;52.916;6.542;2023-12-20T14:39:37;6.40;99.90
57108;DHT22;42987;52.916;6.542;2023-12-20T14:42:10;6.40;99.90
57108;DHT22;42987;52.916;6.542;2023-12-20T14:44:42;6.40;99.90
57108;DHT22;42987;52.916;6.542;2023-12-20T14:47:08;6.40;99.90
57108;DHT22;42987;52.916;6.542;2023-12-20T14:49:35;6.40;99.90
57108;DHT22;42987;52.916;6.542;2023-12-20T14:52:01;6.40;99.90
57108;DHT22;42987;52.916;6.542;2023-12-20T14:54:27;6.40;99.90
57108;DHT22;42987;52.916;6.542;2023-12-20T14:56:53;6.40;99.90
57108;DHT22;42987;52.916;6.542;2023-12-20T14:59:19;6.40;99.90
57108;DHT22;42987;52.916;6.542;2023-12-20T15:01:44;6.40;99.90
57108;DHT22;42987;52.916;6.542;2023-12-20T15:04:10;6.50;99.90
57108;DHT22;42987;52.916;6.542;2023-12-20T15:06:37;6.40;99.90
57108;DHT22;42987;52.916;6.542;2023-12-20T15:09:03;6.40;99.90
57108;DHT22;42987;52.916;6.542;2023-12-20T15:11:31;6.40;99.90
57108;DHT22;42987;52.916;6.542;2023-12-20T15:13:57;6.40;99.90
57108;DHT22;42987;52.916;6.542;2023-12-20T15:16:26;6.40;99.90
57108;DHT22;42987;52.916;6.542;2023-12-20T15:18:52;6.40;99.90
57108;DHT22;42987;52.916;6.542;2023-12-20T15:21:19;6.40;99.90
57108;DHT22;42987;52.916;6.542;2023-12-20T15:23:45;6.50;99.90
57108;DHT22;42987;52.916;6.542;2023-12-20T15:26:20;6.50;99.90
57108;DHT22;42987;52.916;6.542;2023-12-20T15:28:45;6.50;99.90
57108;DHT22;42987;52.916;6.542;2023-12-20T15:31:11;6.50;99.90
57108;DHT22;42987;52.916;6.542;2023-12-20T15:33:39;6.50;99.90
57108;DHT22;42987;52.916;6.542;2023-12-20T15:36:05;6.50;99.90
57108;DHT22;42987;52.916;6.542;2023-12-20T15:38:32;6.60;99.90
57108;DHT22;42987;52.916;6.542;2023-12-20T15:41:00;6.60;99.90
57108;DHT22;42987;52.916;6.542;2023-12-20T15:43:27;6.60;99.90
57108;DHT22;42987;52.916;6.542;2023-12-20T15:46:02;6.70;99.90
57108;DHT22;42987;52.916;6.542;2023-12-20T15:48:28;6.70;99.90